Vremea acum in Chișineu Criș - Romania

Vrei sa afli care e starea vremii acum in Arad - Romania? Dorim sa iti furnizam starea vremii pentru Arad - Romania. Starea vremii Arad - Romania pentru astazi.

Vremea acum in Chișineu Criș

Temperatura: 20 °C

Este: Senin
Se simte ca: 20 °C
Innorat: 25 %
Precipitatii: %
Presiune atmosferica: 1011 hPa
Umiditate: 68%
Vizibilitate: 10 km
Vantul bate din ESE cu 8.3 km/h

Evolutia vremii in Chișineu Criș pe ore

Ora: 23:00
Temperatura: °C
Sansa de precipitatii: %
Ora Descriere Temp Se simte Precipitatii Umiditate Vant
00:00Senin13°12.5°0%82%SE 8.3 KM/H
01:00Senin12.4°11.9°0%85%SE 7.6 KM/H
02:00Senin12.5°12.1°0%83%SE 6.8 KM/H
03:00Senin13.2°13.4°0%79%SSE 5 KM/H
04:00Senin13.3°13.3°0%77%SSE 6.1 KM/H
05:00Senin13.1°12.9°0%78%SE 6.5 KM/H
06:00Senin13.1°13.1°0%77%SE 5.8 KM/H
07:00Senin13.6°13.5°0%77%SSE 6.5 KM/H
08:00Senin14.5°14.3°0%76%SSE 8.3 KM/H
09:00Senin15.8°15.8°0%71%SSE 7.2 KM/H
10:00Senin17.7°17.7°0%64%S 7.6 KM/H
11:00Senin19.2°19.2°0%60%S 6.8 KM/H
12:00Patchy rain nearby20.9°20.9°100%58%WSW 4.7 KM/H
13:00Patchy rain nearby21.6°21.6°100%53%W 8.3 KM/H
14:00Patchy rain nearby22.1°24.4°79%50%W 7.9 KM/H
15:00Senin23.1°24.6°0%44%W 7.9 KM/H
16:0023.3°24.6°0%42%WNW 6.8 KM/H
17:00Senin22.9°24.5°0%45%NW 4.7 KM/H
18:00Senin22°24.4°0%49%NNE 4.3 KM/H
19:00Senin21.8°21.8°0%53%ENE 5.4 KM/H
20:00Senin19.7°19.7°0%58%E 7.9 KM/H
21:00Senin18.8°18.8°0%56%E 7.9 KM/H
22:00Senin20°18.4°0%68%ESE 8.3 KM/H
23:00Senin17.3°17.3°0%58%SE 8.6 KM/H




tutorials